Latest Weather Observations for Coolangatta

IDQ60801

Issued at 5:32 pm EST Wednesday 27 May 2015 (issued every 30 minutes, with the page automatically refreshed every 10 minutes)

About weather observations | Map of weather stations | Latest weather observations for QLD | Other Formats
Station Details ID: 040717 Name: COOLANGATTA Lat: -28.17 Lon: 153.51 Height: 4.0 m
Data from the previous 72 hours. | See also: Recent months at Coolangatta
Date/Time
EST
Temp
°C
App
Temp
°C
Dew
Point
Rel
Hum
%
Delta-T
°C
Wind Press
QNH
hPa
Press
MSL
hPa
Rain
since 9 am
mm
Dir
 
Spd
km/h
Gust
km/h
Spd
kts
Gust
kts
27/05:30pm 17.2 17.6 14.7 85 1.4 WSW 6 7 3 4 1022.7 1022.7 0.0
27/05:00pm 18.4 19.2 13.7 74 2.7 SSE 2 7 1 4 1022.5 1022.5 0.0
27/04:30pm 20.0 19.9 13.9 68 3.5 ESE 7 9 4 5 1022.1 1022.1 0.0
27/04:00pm 20.5 19.5 13.5 64 4.0 ESE 11 13 6 7 1021.9 1021.9 0.0
27/03:30pm 21.0 20.3 14.2 65 4.0 SE 11 15 6 8 1021.8 1021.8 0.0
27/03:00pm 20.7 19.5 13.9 65 3.9 SE 13 17 7 9 1021.9 1021.9 0.0
27/02:30pm 21.6 20.0 14.0 62 4.4 SE 15 19 8 10 1022.1 1022.1 0.0
27/02:00pm 21.3 19.4 14.2 64 4.1 ESE 17 22 9 12 1022.2 1022.2 0.0
27/01:30pm 21.3 20.9 14.0 63 4.2 SE 9 13 5 7 1022.4 1022.4 0.0
27/01:00pm 21.6 21.3 14.3 63 4.2 S 9 15 5 8 1022.6 1022.6 0.0
27/12:30pm 21.0 20.5 13.9 64 4.1 SSE 9 15 5 8 1023.1 1023.1 0.0
27/12:00pm 20.6 19.7 13.6 64 4.0 SSW 11 17 6 9 1023.8 1023.8 0.0
27/11:30am 21.0 20.2 13.9 64 4.1 S 11 17 6 9 1024.4 1024.4 0.0
27/11:00am 20.3 19.3 14.7 70 3.3 S 13 17 7 9 1024.7 1024.7 0.0
27/10:30am 19.2 18.6 13.6 70 3.2 SSE 9 15 5 8 1025.3 1025.3 0.0
27/10:00am 19.3 18.8 13.9 71 3.1 SSW 9 13 5 7 1025.5 1025.5 0.0
27/09:30am 19.5 18.7 13.9 70 3.2 SSE 11 15 6 8 1025.5 1025.5 0.0
27/09:00am 19.3 18.9 15.2 77 2.4 ESE 11 13 6 7 1025.3 1025.3 0.0
27/08:30am 17.2 17.1 13.9 81 1.9 SE 7 9 4 5 1025.1 1025.1 0.0
27/08:00am 16.8 17.7 14.1 84 1.5 SE 2 7 1 4 1024.9 1024.9 0.0
27/07:30am 16.3 17.3 14.3 88 1.1 SSW 2 6 1 3 1024.7 1024.7 0.0
27/07:00am 15.8 15.3 13.8 88 1.1 SSW 9 9 5 5 1024.7 1024.7 0.0
27/06:30am 15.6 15.3 13.4 87 1.2 SSW 7 9 4 5 1024.2 1024.2 0.0
27/06:00am 15.5 14.5 13.5 88 1.1 SSE 11 15 6 8 1023.9 1023.9 0.0
27/05:30am 15.4 14.8 13.6 89 1.0 SSE 9 13 5 7 1024.0 1024.0 0.0
27/05:00am 15.0 14.4 13.5 91 0.8 SE 9 11 5 6 1023.7 1023.7 0.0
27/04:30am 14.8 13.8 13.3 91 0.8 SE 11 13 6 7 1023.4 1023.4 0.0
27/04:00am 14.6 13.6 13.5 93 0.6 SE 11 17 6 9 1023.3 1023.3 0.0
27/03:30am 14.5 14.2 13.2 92 0.7 SSE 7 9 4 5 1023.6 1023.6 0.0
27/03:00am 14.9 14.6 13.4 91 0.8 S 7 7 4 4 1023.6 1023.6 0.0
27/02:30am 15.6 16.4 13.8 89 1.0 SSW 2 7 1 4 1023.9 1023.9 0.0
27/02:00am 15.3 14.6 14.3 94 0.6 SW 11 13 6 7 1024.0 1024.0 0.0
27/01:30am 14.4 15.0 13.1 92 0.7 SSW 2 7 1 4 1023.8 1023.8 0.0
27/01:00am 14.6 14.1 12.8 89 1.0 SSW 7 9 4 5 1024.1 1024.1 0.0
27/12:30am 15.2 15.1 13.9 92 0.7 SW 7 9 4 5 1024.1 1024.1 0.0
27/12:00am 15.1 16.2 13.6 91 0.8 CALM 0 0 0 0 1024.4 1024.4 0.0
 
Date/Time
EST
Temp
°C
App
Temp
°C
Dew
Point
Rel
Hum
%
Delta-T
°C
Wind Press
QNH
hPa
Press
MSL
hPa
Rain
since 9 am
mm
Dir
 
Spd
km/h
Gust
km/h
Spd
kts
Gust
kts
26/11:30pm 15.2 14.9 13.4 89 1.0 SSW 7 9 4 5 1024.5 1024.5 0.0
26/11:00pm 15.9 15.9 14.1 89 1.0 WSW 7 9 4 5 1024.9 1024.9 0.0
26/10:30pm 16.3 16.0 14.3 88 1.1 SW 9 13 5 7 1025.1 1025.1 0.0
26/10:00pm 16.1 16.1 14.1 88 1.1 WSW 7 11 4 6 1025.5 1025.5 0.0
26/09:30pm 16.0 15.6 14.2 89 1.0 WSW 9 11 5 6 1025.4 1025.4 0.0
26/09:00pm 16.2 15.9 14.4 89 1.0 SW 9 11 5 6 1025.2 1025.2 0.0
26/08:30pm 16.2 15.9 14.4 89 1.0 WSW 9 11 5 6 1025.4 1025.4 0.0
26/08:00pm 16.9 16.2 14.4 85 1.4 WSW 11 13 6 7 1025.7 1025.7 0.0
26/07:30pm 17.1 16.9 14.7 86 1.4 WSW 9 11 5 6 1025.7 1025.7 0.0
26/07:00pm 17.6 17.3 14.5 82 1.8 SW 9 11 5 6 1025.7 1025.7 0.0
26/06:30pm 18.1 17.5 14.6 80 2.0 SW 11 13 6 7 1025.7 1025.7 0.0
26/06:00pm 18.3 18.1 14.8 80 2.0 SW 9 11 5 6 1025.5 1025.5 0.0
26/05:30pm 18.2 18.3 14.5 79 2.1 SSW 7 11 4 6 1024.9 1024.9 0.0
26/05:00pm 18.6 18.6 14.3 76 2.5 S 7 9 4 5 1024.6 1024.6 0.0
26/04:30pm 19.3 18.5 14.1 72 3.0 SSE 11 15 6 8 1024.6 1024.6 0.0
26/04:00pm 19.8 18.2 14.0 69 3.3 SSE 15 20 8 11 1024.3 1024.3 0.0
26/03:30pm 20.3 19.2 14.2 68 3.5 SSE 13 19 7 10 1024.5 1024.5 0.0
26/03:00pm 20.7 19.1 13.9 65 3.9 SE 15 19 8 10 1024.5 1024.5 0.0
26/02:30pm 21.0 18.9 13.7 63 4.2 ESE 17 20 9 11 1024.8 1024.8 0.0
26/02:00pm 21.8 20.0 13.4 59 4.8 ESE 15 19 8 10 1025.2 1025.2 0.0
26/01:30pm 22.3 20.6 13.6 58 5.0 SE 15 20 8 11 1025.0 1025.0 0.0
26/01:00pm 21.9 20.1 13.3 58 4.9 SSE 15 19 8 10 1025.4 1025.4 0.0
26/12:30pm 21.7 19.9 13.3 59 4.8 ESE 15 20 8 11 1025.9 1025.9 0.0
26/12:00pm 21.8 20.6 13.9 61 4.6 SSW 13 19 7 10 1026.5 1026.5 0.0
26/11:30am 22.0 20.5 14.1 61 4.6 S 15 20 8 11 1026.9 1026.9 0.0
26/11:00am 21.4 19.5 14.3 64 4.1 S 17 26 9 14 1027.4 1027.4 0.0
26/10:30am 20.5 18.8 13.7 65 3.9 SSW 15 22 8 12 1027.9 1027.9 0.0
26/10:00am 20.7 18.7 13.9 65 3.9 S 17 22 9 12 1027.8 1027.8 0.0
26/09:30am 20.3 19.0 13.7 66 3.8 SSW 13 19 7 10 1028.2 1028.2 0.0
26/09:00am 19.8 18.5 13.7 68 3.5 SSW 13 17 7 9 1028.2 1028.2 0.2
26/08:30am 18.8 17.3 13.2 70 3.2 SSW 13 19 7 10 1028.2 1028.2 0.2
26/08:00am 18.0 17.1 13.7 76 2.4 SSW 11 17 6 9 1028.2 1028.2 0.2
26/07:30am 16.3 16.1 13.6 84 1.5 S 7 11 4 6 1028.3 1028.3 0.2
26/07:00am 14.4 14.0 12.4 88 1.1 S 6 7 3 4 1028.2 1028.2 0.2
26/06:30am 13.9 13.2 12.1 89 1.0 SE 7 9 4 5 1028.0 1028.0 0.2
26/06:00am 13.0 12.1 10.7 86 1.2 S 6 9 3 5 1028.0 1028.0 0.2
26/05:30am 13.8 14.4 11.8 88 1.1 CALM 0 2 0 1 1027.8 1027.8 0.2
26/05:00am 13.7 12.5 11.7 88 1.1 S 9 9 5 5 1027.4 1027.4 0.2
26/04:30am 14.0 13.3 11.9 87 1.1 SSW 7 9 4 5 1027.4 1027.4 0.2
26/04:00am 14.1 13.4 12.1 88 1.1 SSW 7 9 4 5 1027.4 1027.4 0.2
26/03:30am 14.3 13.9 12.3 88 1.1 S 6 9 3 5 1027.7 1027.7 0.2
26/03:00am 14.5 13.9 11.6 83 1.5 S 6 9 3 5 1027.7 1027.7 0.2
26/02:30am 15.0 15.7 12.1 83 1.6 CALM 0 7 0 4 1027.8 1027.8 0.2
26/02:00am 15.1 14.5 12.4 84 1.5 SSW 7 9 4 5 1027.9 1027.9 0.2
26/01:30am 15.7 15.3 12.3 80 1.9 S 6 9 3 5 1027.8 1027.8 0.2
26/01:00am 16.1 14.9 12.8 81 1.8 SW 11 17 6 9 1028.4 1028.4 0.2
26/12:30am 16.0 15.2 12.9 82 1.7 SW 9 13 5 7 1028.5 1028.5 0.2
26/12:00am 15.5 15.0 12.6 83 1.6 SW 7 11 4 6 1028.4 1028.4 0.2
 
Date/Time
EST
Temp
°C
App
Temp
°C
Dew
Point
Rel
Hum
%
Delta-T
°C
Wind Press
QNH
hPa
Press
MSL
hPa
Rain
since 9 am
mm
Dir
 
Spd
km/h
Gust
km/h
Spd
kts
Gust
kts
25/11:30pm 14.9 14.9 12.4 85 1.4 SSE 4 6 2 3 1028.8 1028.8 0.2
25/11:00pm 15.9 14.4 13.0 83 1.6 SSW 13 20 7 11 1028.8 1028.8 0.2
25/10:30pm 14.4 13.8 12.3 87 1.1 S 7 11 4 6 1029.1 1029.1 0.2
25/10:00pm 15.7 14.4 12.6 82 1.7 SSW 11 15 6 8 1029.2 1029.2 0.2
25/09:30pm 16.0 14.4 12.7 81 1.8 SSW 13 19 7 10 1029.4 1029.4 0.2
25/09:00pm 15.6 14.3 12.4 81 1.7 SSW 11 17 6 9 1029.6 1029.6 0.2
25/08:30pm 16.2 15.0 12.9 81 1.8 S 11 15 6 8 1029.7 1029.7 0.2
25/08:00pm 16.4 15.4 13.3 82 1.7 SW 11 20 6 11 1029.4 1029.4 0.2
25/07:30pm 16.1 15.8 12.8 81 1.8 SSW 6 11 3 6 1029.2 1029.2 0.2
25/07:00pm 16.4 15.0 13.3 82 1.7 SSW 13 19 7 10 1028.8 1028.8 0.2
25/06:30pm 16.3 15.5 13.0 81 1.8 SSW 9 15 5 8 1029.0 1029.0 0.2
25/06:00pm 16.7 15.9 12.8 78 2.2 SW 9 13 5 7 1028.7 1028.7 0.2
25/05:30pm 17.1 16.3 12.8 76 2.4 SSW 9 11 5 6 1028.4 1028.4 0.2
25/05:00pm 17.9 17.1 13.0 73 2.7 SSW 9 13 5 7 1028.6 1028.6 0.2
25/04:30pm 19.3 17.8 13.2 68 3.5 SSW 13 24 7 13 1028.4 1028.4 0.2
25/04:00pm 19.4 17.7 12.4 64 3.9 S 13 20 7 11 1028.1 1028.1 0.2
25/03:30pm 20.0 17.0 12.0 60 4.5 SSE 19 26 10 14 1027.9 1027.9 0.2
25/03:00pm 20.4 17.3 11.6 57 4.8 SSE 19 24 10 13 1027.9 1027.9 0.2
25/02:30pm 20.6 18.1 12.3 59 4.7 SSE 17 22 9 12 1028.0 1028.0 0.2
25/02:00pm 21.0 18.5 12.4 58 4.8 SSE 17 22 9 12 1028.3 1028.3 0.2
25/01:30pm 21.0 18.7 11.9 56 5.1 SSE 15 20 8 11 1028.5 1028.5 0.2
25/01:00pm 22.4 19.3 11.5 50 6.0 SE 19 28 10 15 1028.5 1028.5 0.2
25/12:30pm 21.8 19.2 12.1 54 5.5 SSE 17 24 9 13 1029.0 1029.0 0.2
25/12:00pm 22.4 19.7 12.9 55 5.4 S 19 32 10 17 1029.3 1029.3 0.2
25/11:30am 21.6 19.1 13.5 60 4.7 S 19 28 10 15 1030.0 1030.0 0.0
25/11:00am 21.5 19.1 13.7 61 4.5 SSW 19 24 10 13 1030.4 1030.4 0.0
25/10:30am 21.1 19.1 13.8 63 4.2 S 17 28 9 15 1030.7 1030.7 0.0
25/10:00am 20.3 17.6 13.0 63 4.1 S 19 26 10 14 1030.9 1030.9 0.0
25/09:30am 20.2 18.1 13.6 66 3.8 SSW 17 26 9 14 1030.8 1030.8 0.0
25/09:00am 19.8 18.1 13.5 67 3.6 SSW 15 22 8 12 1030.5 1030.5 0.0
25/08:30am 18.8 17.0 13.4 71 3.1 SSW 15 22 8 12 1030.2 1030.2 0.0
25/08:00am 17.9 15.6 13.0 73 2.7 SSW 17 24 9 13 1030.1 1030.1 0.0
25/07:30am 17.1 15.1 12.6 75 2.5 SSW 15 20 8 11 1029.9 1029.9 0.0
25/07:00am 16.3 14.2 12.3 77 2.2 SSW 15 20 8 11 1030.2 1030.2 0.0
25/06:30am 15.7 14.0 12.3 80 1.9 SSW 13 19 7 10 1030.0 1030.0 0.0
25/06:00am 15.5 13.7 12.1 80 1.8 SSW 13 19 7 10 1029.7 1029.7 0.0
25/05:30am 15.6 13.4 12.2 80 1.9 SW 15 22 8 12 1029.5 1029.5 0.0
25/05:00am 15.4 13.2 12.2 81 1.7 SSW 15 20 8 11 1029.4 1029.4 0.0
25/04:30am 15.7 13.6 12.5 81 1.8 SSW 15 20 8 11 1029.1 1029.1 0.0
25/04:00am 15.8 14.1 12.5 81 1.8 SSW 13 20 7 11 1029.0 1029.0 0.0
25/03:30am 16.1 14.2 13.0 82 1.7 SSW 15 20 8 11 1029.4 1029.4 0.0
25/03:00am 16.0 14.2 13.3 84 1.5 SSW 15 22 8 12 1029.1 1029.1 0.0
25/02:30am 16.1 13.4 13.0 82 1.7 SSW 19 32 10 17 1029.5 1029.5 0.0
25/02:00am 16.2 13.5 12.9 81 1.8 SSW 19 30 10 16 1029.4 1029.4 0.0
25/01:30am 16.3 13.9 12.7 79 2.0 SSW 17 24 9 13 1029.3 1029.3 0.0
25/01:00am 16.5 14.9 12.7 78 2.1 SSW 13 17 7 9 1029.6 1029.6 0.0
25/12:30am 16.6 14.6 12.6 77 2.2 SSW 15 20 8 11 1029.6 1029.6 0.0
25/12:00am 16.5 14.4 12.5 77 2.2 SSW 15 20 8 11 1029.4 1029.4 0.0
 
Date/Time
EST
Temp
°C
App
Temp
°C
Dew
Point
Rel
Hum
%
Delta-T
°C
Wind Press
QNH
hPa
Press
MSL
hPa
Rain
since 9 am
mm
Dir
 
Spd
km/h
Gust
km/h
Spd
kts
Gust
kts
24/11:30pm 16.4 14.3 12.4 77 2.2 SSW 15 20 8 11 1029.6 1029.6 0.0
24/11:00pm 16.6 14.9 12.4 76 2.3 SW 13 17 7 9 1030.1 1030.1 0.0
24/10:30pm 16.8 15.1 12.3 75 2.5 SSW 13 19 7 10 1030.1 1030.1 0.0
24/10:00pm 16.7 15.0 12.3 75 2.4 SSW 13 19 7 10 1029.9 1029.9 0.0
24/09:30pm 17.1 15.4 12.4 74 2.6 SW 13 19 7 10 1030.0 1030.0 0.0
24/09:00pm 17.0 15.3 12.3 74 2.6 SW 13 19 7 10 1030.0 1030.0 0.0
24/08:30pm 17.2 16.0 12.7 75 2.5 SSW 11 17 6 9 1029.8 1029.8 0.0
24/08:00pm 17.6 14.9 12.9 74 2.6 SSW 19 30 10 16 1029.7 1029.7 0.0
24/07:30pm 17.5 15.5 12.6 73 2.7 SSW 15 20 8 11 1029.3 1029.3 0.0
24/07:00pm 17.4 15.7 12.3 72 2.8 SSW 13 20 7 11 1029.2 1029.2 0.0
24/06:30pm 17.7 15.7 12.6 72 2.8 SSW 15 22 8 12 1029.1 1029.1 0.0
24/06:00pm 18.0 16.4 12.9 72 2.8 S 13 20 7 11 1029.0 1029.0 0.0

Other Formats:

Comma delimited format used in spreadsheet applications
http://www.bom.gov.au/fwo/IDQ60801/IDQ60801.94592.axf

JavaScript Object Notation format (JSON) in row-major order
http://www.bom.gov.au/fwo/IDQ60801/IDQ60801.94592.json